• Join FlightAware (Why Join?)
  • Login
  • US Flag 
03:45AM EDT


 

Airport Tracker/Info


-or-


 

Live Flight TrackerFlight Track Log ✈ TUS8476 ✈ 06-Jul-2013 ✈ SKBO / BOG - KMIA

Flight Track Log - Related Links

Times and Time Zones

All times are in EDT time to prevent confusion due to time zone crossing. See the TUS8476 flight status page for this flight to view local times or setup timezone preferences in your user account.

Time Position Orientation Groundspeed Altitude Reporting Facility
EDT Latitude Longitude Course Direction KTS MPH feet Rate Location/Type
05:08PM 23.2944 -78.8568 346° North  Level FlightAware Approximate
05:09PM 23.4117 -78.8897 346° North  Level FlightAware Approximate
05:10PM 23.5289 -78.9227 346° North  Level FlightAware Approximate
05:10PM 23.2186 -78.8597 353° North 464 534 34,000  Level Miami Center
05:11PM 23.6457 -78.9576 344° North  Level FlightAware Approximate
05:11PM 23.3517 -78.9003 344° North 473 544 34,000  Level Miami Center
05:12PM 23.7622 -78.9934 344° North  Level FlightAware Approximate
05:12PM 23.4747 -78.9314 347° North 467 537 34,000  Level Miami Center
05:13PM 23.8787 -79.0293 344° North  Level FlightAware Approximate
05:13PM 23.6017 -78.9653 346° North 460 529 34,000  Level Miami Center
05:14PM 23.9952 -79.0652 344° North  Level FlightAware Approximate
05:14PM 23.7203 -78.9944 347° North 447 514 34,000  Level Miami Center
05:15PM 24.1156 -79.0769 353° North  Level FlightAware Approximate
05:15PM 23.8472 -79.0308 345° North 452 520 34,000  Level Miami Center
05:16PM 23.9681 -79.0625 347° North 448 516 34,000  Level Miami Center
05:17PM 24.0950 -79.0897 349° North 454 522 34,000  Level Miami Center
05:18PM 24.2133 -79.1419 338° Northwest 449 517 34,000 -1,440 Level Miami Center
05:19PM 24.3336 -79.2033 335° Northwest 457 526 31,200 -2,700 Descending Miami Center
05:20PM 24.4683 -79.2675 337° Northwest 475 547 28,700 -2,280 Descending Miami Center
05:21PM 24.5864 -79.3247 336° Northwest 469 540 26,700 -2,280 Descending Miami Center
05:22PM 24.7006 -79.3842 335° Northwest 456 525 24,200 -2,340 Descending Miami Center
05:23PM 24.8164 -79.4392 337° Northwest 451 519 22,100 -2,340 Descending Miami Center
05:24PM 24.9242 -79.4939 335° Northwest 436 502 19,600 -2,160 Descending Miami Center
05:25PM 25.0339 -79.5469 336° Northwest 436 502 17,800 -1,800 Descending Miami Center
05:25PM 25.0981 -79.5850 332° Northwest 420 483 16,700 -2,100 Descending Miami Center
05:26PM 25.1850 -79.6283 336° Northwest 401 461 14,800 -2,280 Descending Miami Center
05:27PM 25.2389 -79.6500 340° North 416 479 13,700 -1,860 Descending Miami Center
05:28PM 25.3342 -79.7006 334° Northwest 393 452 12,000 -1,140 Descending Miami Center
05:28PM 25.3775 -79.7269 331° Northwest 341 392 12,000 -300 Level Miami Center
05:29PM 25.4122 -79.7600 319° Northwest 361 415 11,700 -720 Descending Miami Center
05:29PM 25.4428 -79.8089 305° West 354 407 11,300 -720 Descending Miami Center
05:30PM 25.4972 -79.8931 306° West 323 372 10,600 -720 Descending Miami Center
05:31PM 25.5478 -79.9728 305° West 299 344 9,900 -720 Descending Miami Center
05:32PM 25.5986 -80.0453 308° West 300 345 9,200 -720 Descending Miami Center
05:33PM 25.6531 -80.1322 305° West 296 341 8,400 -720 Descending Miami Center
05:34PM 25.6786 -80.2089 290° West 303 349 7,800 -1,020 Descending Miami Center
05:35PM 25.6975 -80.2947 284° West 304 350 6,600 -1,740 Descending Miami Center
05:36PM 25.7078 -80.3872 277° West 294 338 4,500 -1,740 Descending Miami Center
05:37PM 25.7139 -80.4819 274° West 274 315 3,000 -720 Descending Miami Center
05:38PM 25.7658 -80.4858 356° North 185 213 3,000 -540 Level Miami Center
05:39PM 25.7775 -80.4353 76° East 175 201 2,000 -900 Descending Miami Center
05:40PM 25.7789 -80.3847 88° East 161 185 1,200 -840 Descending Miami Center
05:42PM 25.7819 -80.3386 86° East 144 166 400 -840 Descending Miami Center
05:44PM 25.7833 -80.2833 77° East  Level FlightAware Approximate